Time;durP1;ratioP1;P1;durP2;ratioP2;P2;SDS_P1;SDS_P2;PMS_P1;PMS_P2;Temp;Humidity;BMP_temperature;BMP_pressure;BME280_temperature;BME280_humidity;BME280_pressure;Samples;Min_cycle;Max_cycle;Signal;HPM_P1;HPM_P2
2022/06/08 00:00:19;;;;;;;8.88;5.88;;;;;22.10;100907.00;;;;5069928;28;20206;-78
2022/06/08 00:02:55;;;;;;;9.07;6.53;;;;;22.00;100905.00;;;;5064667;28;20195;-77
2022/06/08 00:05:23;;;;;;;7.95;6.10;;;;;22.00;100901.00;;;;5065284;28;20194;-78
2022/06/08 00:07:52;;;;;;;9.40;5.88;;;;;22.00;100906.00;;;;5069667;28;20196;-78
2022/06/08 00:10:20;;;;;;;8.32;6.05;;;;;22.00;100899.00;;;;5072382;28;20233;-78
2022/06/08 00:12:48;;;;;;;8.50;6.65;;;;;22.00;100909.00;;;;5070037;28;20223;-78
2022/06/08 00:15:16;;;;;;;7.38;6.00;;;;;22.00;100908.00;;;;5070339;28;20672;-78
2022/06/08 00:17:44;;;;;;;7.38;5.57;;;;;22.00;100898.00;;;;5069207;28;20195;-78
2022/06/08 00:20:13;;;;;;;8.48;6.60;;;;;21.90;100897.00;;;;5071266;28;20195;-78
2022/06/08 00:22:41;;;;;;;9.38;7.05;;;;;21.90;100892.00;;;;5070874;28;20214;-78
2022/06/08 00:25:11;;;;;;;8.95;6.30;;;;;21.90;100893.00;;;;5069716;28;20197;-78
2022/06/08 00:27:38;;;;;;;10.48;6.78;;;;;21.90;100890.00;;;;5069334;28;20281;-78
2022/06/08 00:30:08;;;;;;;9.43;6.57;;;;;21.80;100891.00;;;;5064065;28;20207;-78
2022/06/08 00:32:36;;;;;;;9.25;6.28;;;;;21.90;100886.00;;;;5062620;28;20223;-78
2022/06/08 00:35:04;;;;;;;9.57;6.28;;;;;21.90;100896.00;;;;5071006;28;20194;-78
2022/06/08 00:37:31;;;;;;;8.05;5.75;;;;;21.80;100882.00;;;;5070157;28;20199;-77
2022/06/08 00:39:58;;;;;;;8.27;6.25;;;;;21.80;100879.00;;;;5069746;28;20209;-78
2022/06/08 00:42:28;;;;;;;10.23;7.22;;;;;21.80;100877.00;;;;5069188;28;20230;-78
2022/06/08 00:44:59;;;;;;;9.32;6.72;;;;;21.80;100877.00;;;;5067605;28;20209;-78
2022/06/08 00:47:30;;;;;;;8.60;6.82;;;;;21.80;100871.00;;;;5067936;28;20196;-78
2022/06/08 00:50:00;;;;;;;9.52;6.88;;;;;21.80;100872.00;;;;5069221;28;20208;-77
2022/06/08 00:52:29;;;;;;;8.60;6.35;;;;;21.80;100870.00;;;;5067852;28;20218;-78
2022/06/08 00:55:01;;;;;;;7.10;6.20;;;;;21.70;100867.00;;;;5068553;28;20195;-77
2022/06/08 00:57:36;;;;;;;8.18;6.22;;;;;21.70;100867.00;;;;5060499;28;20198;-78
2022/06/08 01:00:08;;;;;;;8.75;6.05;;;;;21.70;100853.00;;;;5051493;28;20206;-78
2022/06/08 01:02:36;;;;;;;8.27;6.53;;;;;21.70;100858.00;;;;5066389;28;20203;-77
2022/06/08 01:05:23;;;;;;;9.60;6.32;;;;;21.60;100864.00;;;;5069243;28;20199;-78
2022/06/08 01:07:53;;;;;;;8.32;6.10;;;;;21.70;100854.00;;;;5071841;28;20195;-78
2022/06/08 01:10:28;;;;;;;10.63;6.68;;;;;21.70;100856.00;;;;5071408;28;20221;-78
2022/06/08 01:13:04;;;;;;;10.02;6.60;;;;;21.70;100851.00;;;;5072503;28;20225;-78
2022/06/08 01:15:33;;;;;;;8.60;6.60;;;;;21.70;100851.00;;;;5070618;28;20202;-78
2022/06/08 01:18:00;;;;;;;8.52;6.03;;;;;21.70;100839.00;;;;5069435;28;20203;-76
2022/06/08 01:20:27;;;;;;;8.50;5.80;;;;;21.70;100826.00;;;;5067248;28;20210;-76
2022/06/08 01:22:56;;;;;;;10.65;7.57;;;;;21.70;100821.00;;;;5068423;28;20202;-76
2022/06/08 01:25:25;;;;;;;8.70;6.25;;;;;21.70;100822.00;;;;5067107;28;20199;-77
2022/06/08 01:28:05;;;;;;;7.82;5.90;;;;;21.70;100824.00;;;;5067278;28;20587;-76
2022/06/08 01:30:40;;;;;;;8.43;6.68;;;;;21.70;100811.00;;;;5068019;28;20286;-76
2022/06/08 01:33:30;;;;;;;9.65;7.53;;;;;21.60;100810.00;;;;5067713;28;20232;-76
2022/06/08 01:36:22;;;;;;;8.90;6.05;;;;;21.60;100808.00;;;;5067905;28;20675;-76
2022/06/08 01:39:01;;;;;;;10.27;6.78;;;;;21.60;100808.00;;;;5063156;28;20210;-76
2022/06/08 01:41:52;;;;;;;12.88;7.15;;;;;21.60;100799.00;;;;5067127;28;20197;-76
2022/06/08 01:44:41;;;;;;;9.07;6.15;;;;;21.60;100795.00;;;;5069024;28;20205;-77
2022/06/08 01:47:12;;;;;;;7.75;5.85;;;;;21.70;100792.00;;;;5065456;28;20290;-77
2022/06/08 01:49:46;;;;;;;8.43;5.88;;;;;21.60;100781.00;;;;5066716;28;20208;-77
2022/06/08 01:52:23;;;;;;;7.22;5.63;;;;;21.60;100779.00;;;;5066674;28;20194;-77
2022/06/08 01:55:03;;;;;;;7.22;5.65;;;;;21.60;100776.00;;;;5065595;28;20207;-76
2022/06/08 01:57:52;;;;;;;9.05;5.82;;;;;21.60;100773.00;;;;5057657;28;20201;-77
2022/06/08 02:00:23;;;;;;;7.72;5.63;;;;;21.70;100773.00;;;;5060650;28;20206;-77
2022/06/08 02:02:58;;;;;;;9.07;5.78;;;;;21.60;100774.00;;;;5064459;28;20213;-76
2022/06/08 02:05:33;;;;;;;10.15;6.55;;;;;21.60;100769.00;;;;5065344;28;20194;-77
2022/06/08 02:08:05;;;;;;;10.52;6.68;;;;;21.60;100773.00;;;;5067690;28;20194;-76
2022/06/08 02:10:44;;;;;;;9.85;6.72;;;;;21.60;100764.00;;;;5066471;28;20198;-76
2022/06/08 02:13:20;;;;;;;9.25;6.82;;;;;21.60;100760.00;;;;5067338;28;20229;-77
2022/06/08 02:15:52;;;;;;;8.90;6.40;;;;;21.60;100757.00;;;;5067384;28;20206;-76
2022/06/08 02:18:25;;;;;;;8.70;6.38;;;;;21.60;100749.00;;;;5060483;28;20199;-77
2022/06/08 02:20:57;;;;;;;9.15;6.65;;;;;21.50;100748.00;;;;5067502;28;20203;-76
2022/06/08 02:23:29;;;;;;;7.78;6.18;;;;;21.50;100738.00;;;;5066873;28;20198;-76
2022/06/08 02:26:02;;;;;;;8.93;6.53;;;;;21.50;100729.00;;;;5066617;28;20206;-77
2022/06/08 02:28:34;;;;;;;9.27;6.40;;;;;21.50;100727.00;;;;5065201;28;20202;-76
2022/06/08 02:31:08;;;;;;;9.63;7.13;;;;;21.40;100724.00;;;;5065992;28;20215;-77
2022/06/08 02:36:29;;;;;;;8.10;5.97;;;;;21.40;100730.00;;;;5067165;28;20675;-77
2022/06/08 02:39:05;;;;;;;10.38;7.20;;;;;21.40;100720.00;;;;5067010;28;20210;-77
2022/06/08 02:41:35;;;;;;;11.38;5.75;;;;;21.40;100724.00;;;;5068523;28;20233;-77
2022/06/08 02:44:07;;;;;;;8.82;6.53;;;;;21.30;100720.00;;;;5072809;28;20199;-77
2022/06/08 02:46:44;;;;;;;9.00;6.65;;;;;21.30;100729.00;;;;5070618;28;20202;-77
2022/06/08 02:49:11;;;;;;;10.90;7.65;;;;;21.30;100717.00;;;;5073346;28;20195;-77
2022/06/08 02:51:43;;;;;;;10.93;7.20;;;;;21.30;100716.00;;;;5072990;28;20206;-77
2022/06/08 02:54:15;;;;;;;10.50;7.43;;;;;21.20;100714.00;;;;5071235;28;20226;-77
2022/06/08 02:57:10;;;;;;;11.00;7.82;;;;;21.10;100717.00;;;;5071948;28;20552;-77
2022/06/08 02:59:51;;;;;;;8.05;6.65;;;;;21.20;100710.00;;;;5070884;28;20198;-77
2022/06/08 03:02:23;;;;;;;8.50;6.13;;;;;21.20;100710.00;;;;5065419;28;20199;-77
2022/06/08 03:04:57;;;;;;;9.23;6.03;;;;;21.10;100706.00;;;;5069660;28;20195;-77
2022/06/08 03:07:27;;;;;;;11.68;6.55;;;;;21.10;100699.00;;;;5071642;28;20197;-77
2022/06/08 03:09:56;;;;;;;9.23;7.55;;;;;21.10;100692.00;;;;5070575;28;20197;-77
2022/06/08 03:12:31;;;;;;;11.40;7.03;;;;;21.10;100690.00;;;;5070839;28;20207;-77
2022/06/08 03:15:00;;;;;;;9.32;6.50;;;;;21.10;100689.00;;;;5071489;28;20194;-77
2022/06/08 03:17:31;;;;;;;9.63;7.15;;;;;21.10;100692.00;;;;5071989;28;20211;-77
2022/06/08 03:19:59;;;;;;;9.88;7.38;;;;;21.10;100686.00;;;;5063402;28;20203;-77
2022/06/08 03:22:26;;;;;;;10.25;7.40;;;;;21.00;100691.00;;;;5070953;28;20203;-77
2022/06/08 03:24:54;;;;;;;10.63;7.60;;;;;21.00;100693.00;;;;5069794;28;20210;-77
2022/06/08 03:27:22;;;;;;;9.73;6.82;;;;;21.00;100694.00;;;;5070736;28;20210;-77
2022/06/08 03:29:50;;;;;;;10.98;7.75;;;;;21.00;100693.00;;;;5072093;28;20205;-77
2022/06/08 03:32:18;;;;;;;10.27;7.95;;;;;21.00;100687.00;;;;5071851;28;20687;-77
2022/06/08 03:34:45;;;;;;;9.85;7.45;;;;;21.00;100687.00;;;;5072026;28;20211;-77
2022/06/08 03:37:13;;;;;;;9.95;7.43;;;;;21.00;100678.00;;;;5067228;28;20256;-77
2022/06/08 03:39:40;;;;;;;10.55;7.97;;;;;20.90;100676.00;;;;5071868;28;20195;-77
2022/06/08 03:42:08;;;;;;;11.02;7.88;;;;;20.90;100680.00;;;;5064105;28;20233;-77
2022/06/08 03:44:36;;;;;;;10.77;7.95;;;;;20.90;100676.00;;;;5069469;28;21167;-77
2022/06/08 03:47:08;;;;;;;10.85;8.27;;;;;20.90;100679.00;;;;5070610;28;20203;-77
2022/06/08 03:49:35;;;;;;;10.38;8.07;;;;;20.90;100683.00;;;;5070007;28;20202;-77
2022/06/08 03:52:06;;;;;;;9.52;7.70;;;;;20.90;100684.00;;;;5070480;28;21090;-77
2022/06/08 03:54:39;;;;;;;9.30;7.47;;;;;20.90;100692.00;;;;5065525;28;20229;-77
2022/06/08 03:57:10;;;;;;;11.23;7.85;;;;;20.90;100679.00;;;;5072139;28;20207;-77
2022/06/08 03:59:40;;;;;;;12.48;8.00;;;;;20.90;100679.00;;;;5069937;28;20191;-77
2022/06/08 04:02:10;;;;;;;10.52;7.95;;;;;20.90;100682.00;;;;5071321;28;20699;-77
2022/06/08 04:04:38;;;;;;;11.05;8.68;;;;;20.90;100691.00;;;;5071802;28;20195;-77
2022/06/08 04:07:06;;;;;;;11.82;9.27;;;;;20.90;100686.00;;;;5070559;28;20195;-77
2022/06/08 04:09:33;;;;;;;12.73;8.93;;;;;20.90;100690.00;;;;5070746;28;20199;-77
2022/06/08 04:12:00;;;;;;;10.98;8.73;;;;;20.90;100689.00;;;;5069546;28;20746;-77
2022/06/08 04:14:28;;;;;;;11.77;9.32;;;;;20.90;100693.00;;;;5070638;28;20222;-77
2022/06/08 04:16:55;;;;;;;11.50;9.07;;;;;21.00;100688.00;;;;5072166;28;20859;-77
2022/06/08 04:19:24;;;;;;;11.27;8.73;;;;;21.00;100684.00;;;;5067427;28;20204;-77
2022/06/08 04:21:52;;;;;;;11.02;9.00;;;;;21.00;100676.00;;;;5066534;28;20749;-77
2022/06/08 04:24:21;;;;;;;11.32;9.10;;;;;21.00;100685.00;;;;5074106;28;20199;-77
2022/06/08 04:26:49;;;;;;;12.63;9.40;;;;;21.00;100683.00;;;;5073723;28;20194;-77
2022/06/08 04:29:17;;;;;;;11.00;8.30;;;;;21.00;100677.00;;;;5079224;28;20206;-77
2022/06/08 04:31:45;;;;;;;10.85;8.57;;;;;21.10;100684.00;;;;5078366;28;20207;-77
2022/06/08 04:34:13;;;;;;;10.95;8.00;;;;;21.10;100679.00;;;;5076074;28;20237;-77
2022/06/08 04:36:43;;;;;;;10.00;8.40;;;;;21.10;100680.00;;;;5077432;28;20200;-77
2022/06/08 04:39:12;;;;;;;10.55;8.02;;;;;21.20;100679.00;;;;5072554;28;20585;-78
2022/06/08 04:41:40;;;;;;;10.23;8.02;;;;;21.20;100675.00;;;;5072356;28;20583;-77
2022/06/08 04:44:08;;;;;;;11.43;7.88;;;;;21.20;100677.00;;;;5069186;28;20206;-77
2022/06/08 04:46:37;;;;;;;10.50;7.57;;;;;21.30;100674.00;;;;5070912;28;20207;-77
2022/06/08 04:49:04;;;;;;;9.38;8.00;;;;;21.30;100674.00;;;;5071409;28;20663;-78
2022/06/08 04:51:33;;;;;;;9.60;7.85;;;;;21.40;100675.00;;;;5071631;28;20198;-78
2022/06/08 04:54:02;;;;;;;12.10;8.30;;;;;21.40;100678.00;;;;5072229;28;20326;-77
2022/06/08 04:56:30;;;;;;;11.15;8.43;;;;;21.40;100677.00;;;;5069847;28;20205;-77
2022/06/08 04:58:57;;;;;;;10.68;8.75;;;;;21.40;100663.00;;;;5069635;28;20203;-78
2022/06/08 05:01:24;;;;;;;8.23;7.38;;;;;21.50;100667.00;;;;5067782;28;20198;-78
2022/06/08 05:03:52;;;;;;;8.90;7.10;;;;;21.50;100673.00;;;;5070323;28;20203;-78
2022/06/08 05:06:20;;;;;;;9.70;7.25;;;;;21.50;100668.00;;;;5071855;28;20609;-77
2022/06/08 05:08:47;;;;;;;8.48;7.10;;;;;21.60;100653.00;;;;5071629;28;20674;-77
2022/06/08 05:11:16;;;;;;;8.75;6.90;;;;;21.60;100655.00;;;;5069579;28;20641;-77
2022/06/08 05:13:43;;;;;;;9.25;6.93;;;;;21.70;100655.00;;;;5059664;28;20221;-78
2022/06/08 05:16:11;;;;;;;9.88;7.32;;;;;21.70;100644.00;;;;5068457;28;20199;-77
2022/06/08 05:18:38;;;;;;;9.77;7.03;;;;;21.70;100636.00;;;;5062883;28;20199;-78
2022/06/08 05:21:06;;;;;;;12.80;7.78;;;;;21.70;100641.00;;;;5067995;28;20590;-78
2022/06/08 05:23:37;;;;;;;11.95;7.05;;;;;21.70;100643.00;;;;5068374;28;20198;-77
2022/06/08 05:26:05;;;;;;;8.20;6.85;;;;;21.80;100639.00;;;;5067888;28;20201;-77
2022/06/08 05:28:33;;;;;;;8.50;6.65;;;;;21.80;100633.00;;;;5069200;28;20218;-77
2022/06/08 05:31:01;;;;;;;9.10;6.70;;;;;21.80;100632.00;;;;5067032;28;20202;-78
2022/06/08 05:33:29;;;;;;;8.85;6.43;;;;;21.90;100628.00;;;;5069748;28;20236;-78
2022/06/08 05:35:57;;;;;;;7.93;6.28;;;;;21.90;100638.00;;;;5069176;28;20194;-77
2022/06/08 05:38:25;;;;;;;10.52;6.80;;;;;21.90;100633.00;;;;5068778;28;20198;-77
2022/06/08 05:40:52;;;;;;;9.13;6.78;;;;;22.00;100621.00;;;;5070000;28;20209;-77
2022/06/08 05:43:19;;;;;;;8.20;6.20;;;;;22.00;100623.00;;;;5071275;28;20223;-78
2022/06/08 05:45:48;;;;;;;8.00;5.88;;;;;22.00;100615.00;;;;5066792;28;20692;-78
2022/06/08 05:48:16;;;;;;;8.38;5.55;;;;;22.10;100609.00;;;;5068405;28;20199;-77
2022/06/08 05:50:45;;;;;;;10.23;6.32;;;;;22.10;100611.00;;;;5067035;28;20201;-79
2022/06/08 05:53:13;;;;;;;7.63;6.82;;;;;22.10;100610.00;;;;5062241;28;20203;-78
2022/06/08 05:55:41;;;;;;;6.10;5.20;;;;;22.20;100604.00;;;;5067808;28;20225;-78
2022/06/08 05:58:09;;;;;;;7.30;5.80;;;;;22.20;100604.00;;;;5065003;28;20206;-78
2022/06/08 06:00:39;;;;;;;7.28;5.82;;;;;22.20;100600.00;;;;5067911;28;20210;-79
2022/06/08 06:03:08;;;;;;;8.13;5.95;;;;;22.30;100596.00;;;;5066718;28;20568;-78
2022/06/08 06:05:36;;;;;;;7.40;5.93;;;;;22.40;100594.00;;;;5067183;28;20207;-79
2022/06/08 06:08:04;;;;;;;8.80;6.32;;;;;22.40;100595.00;;;;5067034;28;20692;-79
2022/06/08 06:10:34;;;;;;;8.98;6.68;;;;;22.50;100598.00;;;;5066214;28;20203;-79
2022/06/08 06:13:02;;;;;;;8.05;5.57;;;;;22.50;100587.00;;;;5067392;28;20334;-80
2022/06/08 06:15:30;;;;;;;7.20;5.70;;;;;22.60;100583.00;;;;5067744;28;20230;-80
2022/06/08 06:17:57;;;;;;;7.10;6.28;;;;;22.60;100577.00;;;;5072508;28;20197;-80
2022/06/08 06:20:26;;;;;;;8.75;6.00;;;;;22.70;100583.00;;;;5072857;28;20201;-79
2022/06/08 06:22:54;;;;;;;6.90;5.65;;;;;22.70;100578.00;;;;5074413;28;20198;-79
2022/06/08 06:25:22;;;;;;;10.77;6.47;;;;;22.80;100574.00;;;;5072465;28;20199;-80
2022/06/08 06:27:49;;;;;;;6.68;5.25;;;;;22.90;100580.00;;;;5063588;28;20236;-79
2022/06/08 06:30:17;;;;;;;7.30;6.10;;;;;22.90;100574.00;;;;5071086;28;20199;-78
2022/06/08 06:32:47;;;;;;;7.32;5.20;;;;;23.00;100577.00;;;;5068877;28;20210;-78
2022/06/08 06:35:19;;;;;;;7.47;6.10;;;;;23.00;100569.00;;;;5071157;28;20226;-78
2022/06/08 06:37:48;;;;;;;7.63;5.80;;;;;23.10;100558.00;;;;5068574;28;20198;-78
2022/06/08 06:40:16;;;;;;;9.20;5.20;;;;;23.10;100572.00;;;;5071403;28;20203;-78
2022/06/08 06:42:44;;;;;;;6.32;4.97;;;;;23.20;100560.00;;;;5068114;28;20219;-79
2022/06/08 06:45:12;;;;;;;5.78;4.95;;;;;23.20;100562.00;;;;5071141;28;20191;-80
2022/06/08 06:47:39;;;;;;;6.20;5.15;;;;;23.30;100565.00;;;;5071237;28;20207;-79
2022/06/08 06:50:09;;;;;;;6.50;4.93;;;;;23.30;100567.00;;;;5069974;28;20227;-80
2022/06/08 06:52:36;;;;;;;5.00;4.47;;;;;23.30;100565.00;;;;5061706;28;20195;-79
2022/06/08 06:55:06;;;;;;;6.60;4.88;;;;;23.30;100569.00;;;;5067917;28;20233;-78
2022/06/08 06:57:34;;;;;;;6.35;5.20;;;;;23.40;100568.00;;;;5073909;28;20203;-78
2022/06/08 07:00:03;;;;;;;5.45;4.60;;;;;23.40;100559.00;;;;5070183;28;20238;-78
2022/06/08 07:02:34;;;;;;;5.28;4.43;;;;;23.40;100563.00;;;;5068892;28;20205;-78
2022/06/08 07:05:02;;;;;;;4.43;4.00;;;;;23.50;100561.00;;;;5070760;28;20229;-78
2022/06/08 07:07:29;;;;;;;6.18;4.80;;;;;23.60;100557.00;;;;5071194;28;20203;-78
2022/06/08 07:09:56;;;;;;;4.55;4.05;;;;;23.70;100559.00;;;;5072029;28;20191;-78
2022/06/08 07:12:25;;;;;;;4.63;4.18;;;;;23.80;100560.00;;;;5072098;28;20222;-78
2022/06/08 07:14:52;;;;;;;6.00;4.00;;;;;23.80;100559.00;;;;5066971;28;20231;-77
2022/06/08 07:17:19;;;;;;;4.20;3.70;;;;;23.90;100560.00;;;;5065153;28;20199;-79
2022/06/08 07:19:47;;;;;;;3.83;3.35;;;;;24.00;100558.00;;;;5058923;28;20199;-78
2022/06/08 07:22:14;;;;;;;3.90;3.50;;;;;24.00;100554.00;;;;5067181;28;20586;-78
2022/06/08 07:24:42;;;;;;;3.83;3.42;;;;;24.10;100555.00;;;;5066460;28;20972;-77
2022/06/08 07:27:09;;;;;;;4.80;2.95;;;;;24.10;100550.00;;;;5068840;28;20195;-78
2022/06/08 07:29:38;;;;;;;5.18;3.72;;;;;24.10;100552.00;;;;5068722;28;20210;-77
2022/06/08 07:32:06;;;;;;;3.20;2.83;;;;;24.10;100543.00;;;;5069734;28;20199;-77
2022/06/08 07:34:34;;;;;;;3.17;2.55;;;;;24.20;100538.00;;;;5070801;28;20218;-76
2022/06/08 07:37:01;;;;;;;3.60;2.60;;;;;24.20;100537.00;;;;5073346;28;20276;-79
2022/06/08 07:39:29;;;;;;;4.80;2.45;;;;;24.20;100528.00;;;;5078740;28;20202;-79
2022/06/08 07:41:56;;;;;;;3.05;2.75;;;;;24.20;100529.00;;;;5075564;28;20259;-79
2022/06/08 07:44:24;;;;;;;2.28;2.08;;;;;24.20;100537.00;;;;5069616;28;20199;-78
2022/06/08 07:46:52;;;;;;;3.05;2.35;;;;;24.20;100528.00;;;;5071692;28;20195;-77
2022/06/08 07:49:39;;;;;;;3.67;2.50;;;;;24.20;100527.00;;;;5071792;28;20203;-77
2022/06/08 07:52:13;;;;;;;1.98;1.85;;;;;24.10;100531.00;;;;5066659;28;20207;-79
2022/06/08 07:54:42;;;;;;;2.58;2.33;;;;;24.20;100528.00;;;;5070855;28;20268;-78
2022/06/08 07:57:14;;;;;;;2.88;2.40;;;;;24.20;100524.00;;;;5065203;28;20195;-77
2022/06/08 07:59:41;;;;;;;3.92;2.33;;;;;24.20;100528.00;;;;5069683;28;20217;-77
2022/06/08 08:02:11;;;;;;;2.42;1.92;;;;;24.20;100529.00;;;;5066561;28;20195;-78
2022/06/08 08:04:39;;;;;;;3.22;1.95;;;;;24.20;100536.00;;;;5069276;28;20309;-77
2022/06/08 08:07:07;;;;;;;2.53;2.20;;;;;24.30;100533.00;;;;5068994;28;20758;-78
2022/06/08 08:09:34;;;;;;;5.03;2.38;;;;;24.30;100540.00;;;;5061391;28;20214;-77
2022/06/08 08:12:03;;;;;;;1.98;1.67;;;;;24.30;100532.00;;;;5068295;28;20265;-78
2022/06/08 08:14:33;;;;;;;2.60;2.00;;;;;24.30;100534.00;;;;5065554;28;20254;-77
2022/06/08 08:17:01;;;;;;;2.10;1.55;;;;;24.30;100526.00;;;;5069177;28;20201;-78
2022/06/08 08:19:29;;;;;;;2.55;1.65;;;;;24.30;100528.00;;;;5066075;28;20199;-77
2022/06/08 08:21:57;;;;;;;3.25;1.75;;;;;24.40;100523.00;;;;5066882;28;20195;-77
2022/06/08 08:24:24;;;;;;;1.50;1.38;;;;;24.50;100525.00;;;;5066856;28;20286;-77
2022/06/08 08:26:52;;;;;;;1.63;1.25;;;;;24.50;100524.00;;;;5066806;28;20211;-79
2022/06/08 08:29:20;;;;;;;4.18;1.50;;;;;24.50;100528.00;;;;5068175;28;20207;-78
2022/06/08 08:31:49;;;;;;;2.65;1.50;;;;;24.50;100524.00;;;;5067870;28;20214;-79
2022/06/08 08:34:17;;;;;;;2.63;1.33;;;;;24.50;100527.00;;;;5068280;28;20199;-79
2022/06/08 08:36:46;;;;;;;2.13;1.42;;;;;24.50;100523.00;;;;5066340;28;20245;-78
2022/06/08 08:39:13;;;;;;;3.70;1.50;;;;;24.50;100526.00;;;;5067373;28;20260;-79
2022/06/08 08:44:35;;;;;;;3.80;1.38;;;;;24.50;100512.00;;;;5067511;28;20329;-78
2022/06/08 08:47:12;;;;;;;3.47;1.98;;;;;24.50;100508.00;;;;5064648;28;20574;-78
2022/06/08 08:49:45;;;;;;;1.92;1.70;;;;;24.60;100513.00;;;;5067732;28;20203;-78
2022/06/08 08:52:22;;;;;;;1.98;1.55;;;;;24.60;100514.00;;;;5064889;28;20402;-79
2022/06/08 08:54:57;;;;;;;3.22;2.28;;;;;24.60;100505.00;;;;5066444;28;20215;-78
2022/06/08 08:57:34;;;;;;;4.13;2.13;;;;;24.60;100505.00;;;;5066787;28;20198;-79
2022/06/08 09:00:10;;;;;;;2.22;1.60;;;;;24.70;100507.00;;;;5063823;28;20202;-79
2022/06/08 09:05:24;;;;;;;1.88;1.55;;;;;24.80;100507.00;;;;5065079;28;20216;-78
2022/06/08 09:07:54;;;;;;;2.08;1.80;;;;;24.80;100515.00;;;;5068472;28;20660;-79
2022/06/08 09:10:23;;;;;;;1.75;1.35;;;;;24.80;100513.00;;;;5068505;28;20206;-79
2022/06/08 09:12:52;;;;;;;3.38;2.03;;;;;24.90;100513.00;;;;5068777;28;20234;-79
2022/06/08 09:15:49;;;;;;;3.30;1.90;;;;;24.80;100513.00;;;;5064495;28;20226;-79
2022/06/08 09:18:33;;;;;;;3.17;1.75;;;;;24.80;100508.00;;;;5066886;28;20199;-79
2022/06/08 09:21:02;;;;;;;2.25;1.80;;;;;25.00;100502.00;;;;5068571;28;20201;-80
2022/06/08 09:23:42;;;;;;;2.78;2.00;;;;;24.90;100499.00;;;;5064396;28;20218;-77
2022/06/08 09:26:16;;;;;;;3.05;1.83;;;;;25.00;100496.00;;;;5067479;28;20202;-80
2022/06/08 09:28:44;;;;;;;3.00;2.10;;;;;25.10;100501.00;;;;5070449;28;20285;-80
2022/06/08 09:31:29;;;;;;;2.42;1.70;;;;;25.10;100494.00;;;;5061491;28;20203;-81
2022/06/08 09:34:07;;;;;;;3.55;2.00;;;;;25.10;100502.00;;;;5065208;28;20203;-80
2022/06/08 09:36:36;;;;;;;1.90;1.70;;;;;25.20;100495.00;;;;5064777;28;20253;-80
2022/06/08 09:39:04;;;;;;;4.45;2.17;;;;;25.20;100495.00;;;;5061588;28;20199;-80
2022/06/08 09:41:39;;;;;;;3.65;2.05;;;;;25.20;100493.00;;;;5066063;28;20193;-80
2022/06/08 09:44:19;;;;;;;2.97;1.67;;;;;25.10;100492.00;;;;5066928;28;20197;-80
2022/06/08 09:52:57;;;;;;;3.70;1.95;;;;;25.00;100510.00;;;;5061270;28;20294;-80
2022/06/08 09:55:38;;;;;;;1.95;1.25;;;;;25.00;100517.00;;;;5062414;28;20716;-79
2022/06/08 09:58:18;;;;;;;3.42;1.80;;;;;25.00;100505.00;;;;5066775;28;20226;-81
2022/06/08 10:00:51;;;;;;;3.03;1.60;;;;;25.00;100518.00;;;;5057758;28;20245;-80
2022/06/08 10:03:46;;;;;;;3.05;1.30;;;;;24.90;100514.00;;;;5067483;28;20193;-80
2022/06/08 10:06:23;;;;;;;3.78;1.30;;;;;24.90;100520.00;;;;5057254;28;20199;-82
2022/06/08 10:09:02;;;;;;;2.22;1.10;;;;;24.90;100513.00;;;;5063638;28;20666;-81
2022/06/08 10:11:39;;;;;;;3.72;1.45;;;;;24.90;100516.00;;;;5065562;28;20202;-78
2022/06/08 10:14:15;;;;;;;3.75;1.40;;;;;24.80;100518.00;;;;5066123;28;20210;-80
2022/06/08 10:17:01;;;;;;;3.65;0.95;;;;;24.70;100522.00;;;;5066522;28;20225;-79
2022/06/08 10:19:37;;;;;;;2.10;1.30;;;;;24.70;100518.00;;;;5004746;28;20246;-80
2022/06/08 10:22:06;;;;;;;2.58;1.13;;;;;24.70;100518.00;;;;5004661;28;20200;-79
2022/06/08 10:24:41;;;;;;;2.88;1.13;;;;;24.70;100517.00;;;;5003919;28;20322;-79
2022/06/08 10:27:15;;;;;;;2.80;1.17;;;;;24.70;100524.00;;;;5014051;28;20231;-79
2022/06/08 10:29:46;;;;;;;2.75;0.98;;;;;24.70;100518.00;;;;5001375;28;20209;-79
2022/06/08 10:32:19;;;;;;;5.03;1.65;;;;;24.60;100515.00;;;;5011337;28;21024;-78
2022/06/08 10:34:53;;;;;;;2.05;0.55;;;;;24.60;100510.00;;;;5008217;28;20666;-79
2022/06/08 10:37:28;;;;;;;2.08;0.60;;;;;24.50;100520.00;;;;5025273;28;20609;-80
2022/06/08 10:39:56;;;;;;;3.20;1.25;;;;;24.50;100520.00;;;;4999649;28;20282;-79
2022/06/08 10:42:43;;;;;;;2.10;0.93;;;;;24.40;100519.00;;;;5009926;28;20229;-77
2022/06/08 10:45:47;;;;;;;2.90;0.98;;;;;24.30;100515.00;;;;5009780;28;20205;-80
2022/06/08 10:48:48;;;;;;;2.55;0.73;;;;;24.20;100520.00;;;;4985767;28;20765;-81
2022/06/08 10:51:37;;;;;;;3.00;0.70;;;;;24.20;100526.00;;;;5046359;28;20195;-80
2022/06/08 10:57:44;;;;;;;2.33;0.50;;;;;24.10;100527.00;;;;5065392;28;20233;-79
2022/06/08 11:00:47;;;;;;;1.95;0.73;;;;;24.00;100536.00;;;;5063707;28;20212;-78
2022/06/08 11:03:49;;;;;;;2.08;0.50;;;;;23.90;100534.00;;;;5067603;28;20586;-81
2022/06/08 11:06:58;;;;;;;2.13;0.63;;;;;23.80;100539.00;;;;5064230;28;20209;-79
2022/06/08 11:09:46;;;;;;;3.17;0.63;;;;;23.70;100539.00;;;;5064839;28;20195;-80
2022/06/08 11:12:34;;;;;;;2.30;1.13;;;;;23.70;100535.00;;;;5069786;28;20254;-80
2022/06/08 11:15:10;;;;;;;5.60;1.02;;;;;23.80;100533.00;;;;5052406;28;20198;-80
2022/06/08 11:17:45;;;;;;;2.55;0.80;;;;;23.70;100524.00;;;;5068152;28;20200;-80
2022/06/08 11:20:18;;;;;;;1.70;0.70;;;;;23.60;100526.00;;;;5069532;28;20209;-81
2022/06/08 11:22:54;;;;;;;1.77;0.70;;;;;23.60;100524.00;;;;5068417;28;20567;-82
2022/06/08 11:25:31;;;;;;;1.88;0.88;;;;;23.60;100531.00;;;;5070208;28;20202;-80
2022/06/08 11:28:27;;;;;;;1.50;0.70;;;;;23.50;100523.00;;;;5065995;28;20199;-81
2022/06/08 11:30:57;;;;;;;4.93;1.25;;;;;23.60;100521.00;;;;5050610;28;20207;-82
2022/06/08 11:33:50;;;;;;;3.17;1.27;;;;;23.40;100514.00;;;;5056633;28;20207;-81
2022/06/08 11:36:44;;;;;;;3.67;1.20;;;;;23.40;100517.00;;;;5062910;28;20229;-79
2022/06/08 11:39:27;;;;;;;3.38;1.00;;;;;23.40;100515.00;;;;5052851;28;20211;-80
2022/06/08 11:42:04;;;;;;;3.38;1.60;;;;;23.40;100516.00;;;;5066192;28;20230;-80
2022/06/08 11:44:36;;;;;;;4.82;1.48;;;;;23.30;100506.00;;;;5068869;28;20210;-78
2022/06/08 11:47:13;;;;;;;5.25;1.55;;;;;23.30;100509.00;;;;5065591;28;20211;-78
2022/06/08 11:49:43;;;;;;;2.65;1.30;;;;;23.30;100494.00;;;;5070645;28;20202;-77
2022/06/08 11:52:26;;;;;;;2.95;1.38;;;;;23.20;100500.00;;;;5070585;28;20199;-78
2022/06/08 11:55:21;;;;;;;2.92;0.98;;;;;23.10;100489.00;;;;5068909;28;20704;-77
2022/06/08 11:57:54;;;;;;;4.22;1.50;;;;;23.20;100488.00;;;;5065334;28;20207;-78
2022/06/08 12:00:34;;;;;;;3.22;1.67;;;;;23.10;100486.00;;;;5069799;28;20233;-78
2022/06/08 12:03:05;;;;;;;4.55;1.45;;;;;23.10;100489.00;;;;5069398;28;20209;-78
2022/06/08 12:05:36;;;;;;;2.85;1.15;;;;;23.10;100488.00;;;;5068614;28;20207;-77
2022/06/08 12:08:13;;;;;;;3.15;1.05;;;;;23.10;100488.00;;;;5060322;28;21035;-77
2022/06/08 12:10:42;;;;;;;4.18;1.67;;;;;23.10;100476.00;;;;5063070;28;20571;-79
2022/06/08 12:13:20;;;;;;;3.15;1.83;;;;;23.00;100476.00;;;;5068917;28;20219;-78
2022/06/08 12:15:51;;;;;;;3.92;1.85;;;;;23.10;100474.00;;;;5067143;28;20578;-79
2022/06/08 12:18:47;;;;;;;3.95;2.05;;;;;23.00;100470.00;;;;5070593;28;20199;-78
2022/06/08 12:21:39;;;;;;;3.28;1.58;;;;;22.90;100473.00;;;;5020846;28;20737;-77
2022/06/08 12:24:23;;;;;;;4.15;1.45;;;;;22.90;100469.00;;;;5048847;28;20214;-80
2022/06/08 12:27:01;;;;;;;2.28;1.33;;;;;22.90;100462.00;;;;5068885;28;20208;-78
2022/06/08 12:29:39;;;;;;;4.97;1.52;;;;;23.00;100449.00;;;;5068031;28;20205;-79
2022/06/08 12:32:19;;;;;;;4.72;1.33;;;;;22.90;100452.00;;;;5069066;28;20206;-80
2022/06/08 12:34:48;;;;;;;2.72;1.52;;;;;23.00;100454.00;;;;5069209;28;20206;-79
2022/06/08 12:37:43;;;;;;;2.53;1.35;;;;;22.80;100458.00;;;;5069460;28;20229;-79
2022/06/08 12:40:32;;;;;;;4.55;1.70;;;;;22.80;100446.00;;;;5044607;28;20207;-80
2022/06/08 12:43:19;;;;;;;2.22;1.23;;;;;22.70;100446.00;;;;5067816;28;20597;-80
2022/06/08 12:46:06;;;;;;;2.78;1.15;;;;;22.80;100442.00;;;;5059357;28;20256;-79
2022/06/08 12:48:42;;;;;;;2.30;1.15;;;;;22.70;100440.00;;;;5066886;28;20199;-79
2022/06/08 12:51:24;;;;;;;1.10;0.80;;;;;22.60;100433.00;;;;5065840;28;20202;-79